Time;durP1;ratioP1;P1;durP2;ratioP2;P2;SDS_P1;SDS_P2;PMS_P1;PMS_P2;Temp;Humidity;BMP_temperature;BMP_pressure;BME280_temperature;BME280_humidity;BME280_pressure;Samples;Min_cycle;Max_cycle;Signal;HPM_P1;HPM_P2
2023/02/04 00:02:23;;;;;;;60.60;6.53;;;;;;;;;;5074603;28;20443;-69
2023/02/04 00:04:50;;;;;;;61.53;7.53;;;;;;;;;;5074459;28;20482;-69
2023/02/04 00:07:18;;;;;;;61.70;6.90;;;;;;;;;;5074743;28;20816;-68
2023/02/04 00:09:46;;;;;;;60.80;6.63;;;;;;;;;;5073835;28;20505;-70
2023/02/04 00:12:13;;;;;;;61.57;7.10;;;;;;;;;;5074546;28;20447;-70
2023/02/04 00:14:40;;;;;;;62.30;7.47;;;;;;;;;;5074813;28;21023;-70
2023/02/04 00:17:09;;;;;;;63.57;6.90;;;;;;;;;;5074359;28;20443;-70
2023/02/04 00:19:36;;;;;;;63.00;7.30;;;;;;;;;;5073558;28;20447;-71
2023/02/04 00:22:03;;;;;;;62.20;7.57;;;;;;;;;;5074538;28;20886;-69
2023/02/04 00:24:32;;;;;;;60.97;6.13;;;;;;;;;;5074203;28;20847;-70
2023/02/04 00:26:59;;;;;;;62.00;7.10;;;;;;;;;;5074217;28;20451;-68
2023/02/04 00:29:27;;;;;;;62.00;6.63;;;;;;;;;;5073260;28;20897;-69
2023/02/04 00:31:54;;;;;;;60.87;7.00;;;;;;;;;;5074351;28;20489;-70
2023/02/04 00:34:21;;;;;;;66.10;6.40;;;;;;;;;;5073963;28;20474;-69
2023/02/04 00:36:48;;;;;;;62.37;7.27;;;;;;;;;;5074158;28;20447;-69
2023/02/04 00:39:15;;;;;;;60.87;6.43;;;;;;;;;;5073331;28;20448;-69
2023/02/04 00:41:44;;;;;;;60.63;6.03;;;;;;;;;;5074016;28;20471;-69
2023/02/04 00:44:12;;;;;;;61.37;6.27;;;;;;;;;;5072902;28;20478;-69
2023/02/04 00:46:39;;;;;;;63.70;6.60;;;;;;;;;;5074018;28;20505;-69
2023/02/04 00:49:09;;;;;;;60.57;6.50;;;;;;;;;;5073166;28;20443;-70
2023/02/04 00:51:36;;;;;;;59.87;5.97;;;;;;;;;;5073721;28;20463;-69
2023/02/04 00:54:03;;;;;;;62.40;6.20;;;;;;;;;;5074184;28;20470;-70
2023/02/04 00:56:30;;;;;;;59.23;5.77;;;;;;;;;;5073656;28;20439;-69
2023/02/04 00:58:59;;;;;;;62.10;6.17;;;;;;;;;;5072980;28;20444;-70
2023/02/04 01:01:26;;;;;;;60.60;5.37;;;;;;;;;;5073820;28;20446;-68
2023/02/04 01:03:53;;;;;;;63.43;6.10;;;;;;;;;;5073583;28;20474;-69
2023/02/04 01:06:20;;;;;;;61.57;5.60;;;;;;;;;;5073568;28;20447;-69
2023/02/04 01:08:47;;;;;;;63.33;6.27;;;;;;;;;;5072606;28;20455;-69
2023/02/04 01:11:14;;;;;;;61.80;5.80;;;;;;;;;;5073402;28;20483;-69
2023/02/04 01:13:41;;;;;;;61.47;5.73;;;;;;;;;;5073410;28;20464;-69
2023/02/04 01:16:10;;;;;;;63.43;6.53;;;;;;;;;;5073470;28;20448;-68
2023/02/04 01:18:37;;;;;;;63.80;5.93;;;;;;;;;;5072505;28;20443;-68
2023/02/04 01:21:05;;;;;;;61.80;5.33;;;;;;;;;;5073256;28;20439;-69
2023/02/04 01:23:32;;;;;;;59.17;5.50;;;;;;;;;;5072978;28;20537;-68
2023/02/04 01:25:59;;;;;;;62.10;4.83;;;;;;;;;;5073220;28;20891;-68
2023/02/04 01:28:26;;;;;;;62.53;4.63;;;;;;;;;;5073130;28;20454;-69
2023/02/04 01:30:53;;;;;;;60.23;4.90;;;;;;;;;;5072602;28;20480;-68
2023/02/04 01:33:21;;;;;;;64.20;5.60;;;;;;;;;;5073317;28;20995;-68
2023/02/04 01:35:49;;;;;;;63.57;6.20;;;;;;;;;;5072851;28;20447;-69
2023/02/04 01:38:16;;;;;;;63.87;5.10;;;;;;;;;;5072698;28;20443;-68
2023/02/04 01:40:43;;;;;;;59.80;4.50;;;;;;;;;;5072314;28;20450;-67
2023/02/04 01:43:10;;;;;;;62.27;4.77;;;;;;;;;;5072629;28;20474;-68
2023/02/04 01:45:38;;;;;;;61.20;4.77;;;;;;;;;;5072613;28;20448;-68
2023/02/04 01:48:05;;;;;;;60.90;4.33;;;;;;;;;;5072587;28;20510;-69
2023/02/04 01:50:34;;;;;;;63.27;4.40;;;;;;;;;;5071395;28;20475;-68
2023/02/04 01:53:02;;;;;;;58.80;4.33;;;;;;;;;;5072372;28;20451;-68
2023/02/04 01:55:30;;;;;;;60.80;4.67;;;;;;;;;;5072487;28;20448;-69
2023/02/04 01:57:58;;;;;;;59.73;4.83;;;;;;;;;;5072514;28;20445;-68
2023/02/04 02:00:27;;;;;;;59.37;4.30;;;;;;;;;;5071869;28;20448;-68
2023/02/04 02:02:54;;;;;;;59.90;4.10;;;;;;;;;;5072226;28;20458;-67
2023/02/04 02:05:22;;;;;;;64.67;4.90;;;;;;;;;;5072136;28;20959;-69
2023/02/04 02:07:51;;;;;;;60.70;5.67;;;;;;;;;;5072602;28;20538;-68
2023/02/04 02:10:19;;;;;;;60.73;4.80;;;;;;;;;;5071745;28;20505;-69
2023/02/04 02:12:46;;;;;;;59.60;4.53;;;;;;;;;;5072278;28;20987;-67
2023/02/04 02:15:14;;;;;;;59.40;4.53;;;;;;;;;;5072071;28;20463;-68
2023/02/04 02:17:41;;;;;;;63.67;4.53;;;;;;;;;;5072044;28;20456;-68
2023/02/04 02:20:09;;;;;;;60.70;4.93;;;;;;;;;;5070963;28;20443;-68
2023/02/04 02:22:39;;;;;;;61.47;4.90;;;;;;;;;;5072166;28;20448;-68
2023/02/04 02:25:11;;;;;;;63.13;5.00;;;;;;;;;;5071901;28;20483;-68
2023/02/04 02:27:38;;;;;;;60.63;4.70;;;;;;;;;;5072069;28;20442;-68
2023/02/04 02:30:05;;;;;;;60.10;4.57;;;;;;;;;;5071092;28;20999;-69
2023/02/04 02:32:33;;;;;;;59.60;4.33;;;;;;;;;;5071738;28;20451;-67
2023/02/04 02:35:00;;;;;;;58.57;3.80;;;;;;;;;;5071778;28;20980;-68
2023/02/04 02:37:27;;;;;;;59.57;4.77;;;;;;;;;;5071948;28;20458;-68
2023/02/04 02:39:54;;;;;;;60.60;4.33;;;;;;;;;;5071133;28;20454;-68
2023/02/04 02:42:23;;;;;;;62.83;4.43;;;;;;;;;;5068886;28;20966;-68
2023/02/04 02:44:51;;;;;;;61.80;4.23;;;;;;;;;;5071647;28;20474;-68
2023/02/04 02:47:19;;;;;;;61.70;4.87;;;;;;;;;;5071815;28;20466;-68
2023/02/04 02:49:48;;;;;;;61.37;4.20;;;;;;;;;;5070869;28;20448;-69
2023/02/04 02:52:15;;;;;;;63.30;4.37;;;;;;;;;;5068877;28;20447;-67
2023/02/04 02:54:43;;;;;;;60.20;4.23;;;;;;;;;;5071431;28;20467;-68
2023/02/04 02:57:13;;;;;;;61.73;4.10;;;;;;;;;;5071627;28;20455;-67
2023/02/04 02:59:42;;;;;;;62.10;4.17;;;;;;;;;;5070902;28;20448;-68
2023/02/04 03:02:11;;;;;;;63.23;4.10;;;;;;;;;;5071793;28;20444;-68
2023/02/04 03:04:41;;;;;;;58.80;3.50;;;;;;;;;;5071520;28;20475;-68
2023/02/04 03:07:09;;;;;;;66.43;4.40;;;;;;;;;;5073255;28;20828;-68
2023/02/04 03:09:36;;;;;;;63.20;4.50;;;;;;;;;;5074853;28;20454;-68
2023/02/04 03:12:04;;;;;;;61.70;4.40;;;;;;;;;;5075707;28;20487;-67
2023/02/04 03:14:31;;;;;;;63.63;4.30;;;;;;;;;;5075654;28;20889;-69
2023/02/04 03:17:00;;;;;;;60.03;4.37;;;;;;;;;;5075627;28;20817;-68
2023/02/04 03:19:28;;;;;;;60.57;3.87;;;;;;;;;;5074800;28;20986;-67
2023/02/04 03:21:56;;;;;;;60.90;5.00;;;;;;;;;;5075588;28;20451;-68
2023/02/04 03:24:23;;;;;;;62.07;4.13;;;;;;;;;;5075522;28;20486;-68
2023/02/04 03:26:51;;;;;;;61.90;4.13;;;;;;;;;;5075488;28;20447;-68
2023/02/04 03:29:18;;;;;;;67.10;4.47;;;;;;;;;;5074728;28;20450;-67
2023/02/04 03:31:45;;;;;;;72.03;5.07;;;;;;;;;;5075215;28;20487;-68
2023/02/04 03:34:13;;;;;;;64.37;5.00;;;;;;;;;;5075004;28;20467;-67
2023/02/04 03:36:40;;;;;;;62.50;4.57;;;;;;;;;;5074872;28;20454;-67
2023/02/04 03:39:08;;;;;;;61.60;6.07;;;;;;;;;;5074528;28;20473;-68
2023/02/04 03:41:35;;;;;;;62.27;4.97;;;;;;;;;;5075597;28;20443;-69
2023/02/04 03:44:02;;;;;;;64.87;6.03;;;;;;;;;;5075045;28;20478;-68
2023/02/04 03:46:29;;;;;;;67.23;4.70;;;;;;;;;;5074836;28;20955;-68
2023/02/04 03:48:56;;;;;;;69.80;5.10;;;;;;;;;;5074193;28;20455;-68
2023/02/04 03:51:24;;;;;;;65.70;4.27;;;;;;;;;;5074782;28;20486;-67
2023/02/04 03:53:52;;;;;;;73.10;5.30;;;;;;;;;;5074741;28;20478;-69
2023/02/04 03:56:19;;;;;;;63.50;4.20;;;;;;;;;;5074867;28;20537;-67
2023/02/04 03:58:46;;;;;;;60.63;4.57;;;;;;;;;;5074010;28;20451;-68
2023/02/04 04:01:13;;;;;;;63.27;4.77;;;;;;;;;;5074704;28;20451;-67
2023/02/04 04:03:40;;;;;;;62.27;4.90;;;;;;;;;;5074529;28;20467;-68
2023/02/04 04:06:08;;;;;;;62.67;4.73;;;;;;;;;;5074789;28;20461;-67
2023/02/04 04:08:37;;;;;;;60.50;4.63;;;;;;;;;;5074137;28;20546;-68
2023/02/04 04:11:04;;;;;;;67.87;5.00;;;;;;;;;;5074533;28;20479;-68
2023/02/04 04:13:32;;;;;;;65.60;5.10;;;;;;;;;;5074458;28;20471;-68
2023/02/04 04:15:59;;;;;;;64.13;5.23;;;;;;;;;;5074232;28;20455;-68
2023/02/04 04:18:26;;;;;;;61.70;4.43;;;;;;;;;;5074450;28;20454;-68
2023/02/04 04:20:53;;;;;;;61.40;4.57;;;;;;;;;;5074024;28;20446;-68
2023/02/04 04:23:20;;;;;;;68.50;4.87;;;;;;;;;;5074258;28;20477;-68
2023/02/04 04:25:48;;;;;;;62.40;4.50;;;;;;;;;;5074406;28;20451;-68
2023/02/04 04:28:16;;;;;;;64.67;5.70;;;;;;;;;;5074047;28;20451;-68
2023/02/04 04:30:43;;;;;;;63.23;4.83;;;;;;;;;;5073503;28;20479;-69
2023/02/04 04:33:10;;;;;;;62.80;4.70;;;;;;;;;;5074225;28;20447;-68
2023/02/04 04:35:37;;;;;;;62.97;5.03;;;;;;;;;;5074221;28;20465;-68
2023/02/04 04:38:04;;;;;;;61.70;4.60;;;;;;;;;;5074032;28;20452;-68
2023/02/04 04:40:31;;;;;;;64.40;4.87;;;;;;;;;;5073346;28;20545;-68
2023/02/04 04:43:00;;;;;;;59.83;4.70;;;;;;;;;;5073686;28;20451;-68
2023/02/04 04:45:27;;;;;;;63.33;4.90;;;;;;;;;;5073839;28;20447;-68
2023/02/04 04:47:54;;;;;;;67.47;5.20;;;;;;;;;;5074191;28;20533;-66
2023/02/04 04:50:21;;;;;;;60.53;4.53;;;;;;;;;;5073011;28;20455;-68
2023/02/04 04:52:48;;;;;;;61.00;4.80;;;;;;;;;;5073820;28;20948;-67
2023/02/04 04:55:15;;;;;;;60.33;5.10;;;;;;;;;;5073640;28;20467;-67
2023/02/04 04:57:42;;;;;;;61.07;4.57;;;;;;;;;;5073493;28;20450;-67
2023/02/04 05:00:15;;;;;;;62.10;4.70;;;;;;;;;;5072987;28;20452;-68
2023/02/04 05:02:42;;;;;;;60.47;4.60;;;;;;;;;;5073820;28;20765;-68
2023/02/04 05:05:10;;;;;;;59.50;4.00;;;;;;;;;;5073390;28;20971;-68
2023/02/04 05:07:37;;;;;;;60.10;4.30;;;;;;;;;;5073516;28;20454;-68
2023/02/04 05:10:04;;;;;;;60.97;4.10;;;;;;;;;;5073017;28;20820;-68
2023/02/04 05:12:32;;;;;;;63.07;6.00;;;;;;;;;;5073460;28;20852;-68
2023/02/04 05:14:59;;;;;;;64.90;5.33;;;;;;;;;;5073360;28;20471;-66
2023/02/04 05:17:27;;;;;;;64.53;4.60;;;;;;;;;;5073392;28;20458;-68
2023/02/04 05:19:54;;;;;;;62.00;4.30;;;;;;;;;;5072744;28;20451;-68
2023/02/04 05:22:21;;;;;;;62.20;5.07;;;;;;;;;;5073231;28;20939;-67
2023/02/04 05:24:48;;;;;;;63.70;4.60;;;;;;;;;;5072833;28;20483;-67
2023/02/04 05:27:16;;;;;;;62.40;4.77;;;;;;;;;;5073101;28;20475;-67
2023/02/04 05:29:43;;;;;;;62.03;4.30;;;;;;;;;;5071949;28;20444;-67
2023/02/04 05:32:10;;;;;;;60.37;4.80;;;;;;;;;;5072799;28;20482;-67
2023/02/04 05:34:38;;;;;;;62.07;4.83;;;;;;;;;;5072893;28;20554;-67
2023/02/04 05:37:06;;;;;;;64.00;5.20;;;;;;;;;;5072869;28;20443;-67
2023/02/04 05:39:33;;;;;;;62.77;5.17;;;;;;;;;;5072029;28;20450;-67
2023/02/04 05:42:00;;;;;;;61.87;5.00;;;;;;;;;;5072756;28;20448;-67
2023/02/04 05:44:27;;;;;;;62.03;5.40;;;;;;;;;;5072769;28;20474;-67
2023/02/04 05:46:54;;;;;;;64.20;5.33;;;;;;;;;;5072642;28;20447;-66
2023/02/04 05:49:22;;;;;;;63.77;5.00;;;;;;;;;;5072202;28;20822;-67
2023/02/04 05:51:51;;;;;;;71.20;6.10;;;;;;;;;;5072463;28;20483;-67
2023/02/04 05:54:19;;;;;;;64.50;5.53;;;;;;;;;;5072621;28;20479;-66
2023/02/04 05:56:46;;;;;;;65.70;6.00;;;;;;;;;;5072630;28;20498;-67
2023/02/04 05:59:13;;;;;;;64.43;5.73;;;;;;;;;;5071741;28;20454;-67
2023/02/04 06:01:41;;;;;;;64.70;6.30;;;;;;;;;;5072477;28;20460;-68
2023/02/04 06:04:08;;;;;;;67.67;6.50;;;;;;;;;;5072364;28;20467;-68
2023/02/04 06:06:35;;;;;;;66.87;6.40;;;;;;;;;;5072472;28;20452;-68
2023/02/04 06:09:04;;;;;;;68.50;6.00;;;;;;;;;;5071418;28;20946;-67
2023/02/04 06:11:31;;;;;;;64.30;5.87;;;;;;;;;;5071931;28;20480;-68
2023/02/04 06:13:58;;;;;;;64.23;6.23;;;;;;;;;;5072199;28;20475;-68
2023/02/04 06:16:25;;;;;;;67.60;6.40;;;;;;;;;;5072133;28;20967;-68
2023/02/04 06:18:52;;;;;;;63.40;6.07;;;;;;;;;;5071289;28;20451;-68
2023/02/04 06:21:19;;;;;;;65.53;6.40;;;;;;;;;;5072273;28;20444;-68
2023/02/04 06:23:46;;;;;;;62.13;5.37;;;;;;;;;;5072142;28;20484;-68
2023/02/04 06:26:15;;;;;;;66.63;6.63;;;;;;;;;;5072233;28;20959;-68
2023/02/04 06:28:42;;;;;;;69.10;6.90;;;;;;;;;;5071407;28;20823;-69
2023/02/04 06:31:09;;;;;;;65.67;6.80;;;;;;;;;;5072089;28;20443;-69
2023/02/04 06:33:36;;;;;;;66.93;7.30;;;;;;;;;;5071691;28;20463;-68
2023/02/04 06:36:03;;;;;;;64.63;7.07;;;;;;;;;;5072436;28;20444;-68
2023/02/04 06:38:30;;;;;;;64.37;6.63;;;;;;;;;;5071517;28;20454;-68
2023/02/04 06:40:57;;;;;;;66.00;7.47;;;;;;;;;;5071045;28;20453;-68
2023/02/04 06:43:26;;;;;;;71.10;8.70;;;;;;;;;;5071320;28;20467;-68
2023/02/04 06:45:53;;;;;;;66.23;6.83;;;;;;;;;;5071859;28;20537;-69
2023/02/04 06:48:20;;;;;;;64.57;6.57;;;;;;;;;;5071833;28;20446;-68
2023/02/04 06:50:48;;;;;;;65.27;7.47;;;;;;;;;;5070877;28;20447;-68
2023/02/04 06:53:15;;;;;;;70.53;6.97;;;;;;;;;;5071724;28;20491;-68
2023/02/04 06:55:42;;;;;;;66.63;7.40;;;;;;;;;;5071621;28;20959;-68
2023/02/04 06:58:09;;;;;;;66.37;6.97;;;;;;;;;;5071685;28;20446;-68
2023/02/04 07:00:37;;;;;;;66.40;7.43;;;;;;;;;;5070846;28;20504;-68
2023/02/04 07:03:06;;;;;;;69.60;7.07;;;;;;;;;;5071800;28;20444;-69
2023/02/04 07:05:33;;;;;;;72.17;7.83;;;;;;;;;;5071517;28;21002;-69
2023/02/04 07:08:00;;;;;;;65.70;7.60;;;;;;;;;;5071570;28;20458;-69
2023/02/04 07:10:27;;;;;;;67.37;7.90;;;;;;;;;;5070857;28;20967;-69
2023/02/04 07:12:54;;;;;;;62.83;6.57;;;;;;;;;;5071409;28;20479;-68
2023/02/04 07:15:21;;;;;;;67.00;7.83;;;;;;;;;;5071482;28;20448;-69
2023/02/04 07:17:50;;;;;;;64.10;8.87;;;;;;;;;;5071395;28;20448;-68
2023/02/04 07:20:17;;;;;;;65.10;8.73;;;;;;;;;;5070816;28;20478;-68
2023/02/04 07:22:44;;;;;;;64.60;7.90;;;;;;;;;;5071496;28;20477;-67
2023/02/04 07:25:13;;;;;;;67.87;8.23;;;;;;;;;;5071881;28;20487;-68
2023/02/04 07:27:40;;;;;;;66.30;7.30;;;;;;;;;;5071373;28;21016;-68
2023/02/04 07:30:08;;;;;;;65.40;7.30;;;;;;;;;;5070588;28;20462;-68
2023/02/04 07:32:35;;;;;;;68.27;8.23;;;;;;;;;;5071705;28;20494;-68
2023/02/04 07:35:04;;;;;;;65.90;7.53;;;;;;;;;;5071304;28;20467;-69
2023/02/04 07:37:31;;;;;;;66.77;7.33;;;;;;;;;;5071440;28;20458;-68
2023/02/04 07:39:58;;;;;;;64.40;9.70;;;;;;;;;;5070378;28;20944;-68
2023/02/04 07:42:25;;;;;;;63.53;7.07;;;;;;;;;;5071392;28;20454;-69
2023/02/04 07:44:52;;;;;;;69.70;9.30;;;;;;;;;;5071404;28;20463;-69
2023/02/04 07:47:19;;;;;;;64.87;7.80;;;;;;;;;;5071316;28;20453;-69
2023/02/04 07:49:46;;;;;;;68.83;8.90;;;;;;;;;;5070470;28;20451;-68
2023/02/04 07:52:15;;;;;;;64.30;7.73;;;;;;;;;;5071492;28;20852;-69
2023/02/04 07:54:42;;;;;;;69.70;7.83;;;;;;;;;;5074694;28;20463;-69
2023/02/04 07:57:09;;;;;;;66.30;7.57;;;;;;;;;;5074857;28;20516;-69
2023/02/04 07:59:36;;;;;;;67.00;7.53;;;;;;;;;;5074389;28;20443;-69
2023/02/04 08:02:03;;;;;;;68.33;7.80;;;;;;;;;;5075071;28;20443;-69
2023/02/04 08:04:30;;;;;;;67.33;6.47;;;;;;;;;;5074667;28;20975;-69
2023/02/04 08:06:57;;;;;;;70.13;8.47;;;;;;;;;;5074647;28;20455;-69
2023/02/04 08:09:26;;;;;;;72.67;8.13;;;;;;;;;;5073753;28;20460;-69
2023/02/04 08:11:53;;;;;;;67.30;8.80;;;;;;;;;;5074760;28;20486;-69
2023/02/04 08:14:20;;;;;;;68.23;7.47;;;;;;;;;;5074628;28;20849;-68
2023/02/04 08:16:47;;;;;;;66.40;7.60;;;;;;;;;;5074439;28;20447;-68
2023/02/04 08:19:17;;;;;;;65.03;7.87;;;;;;;;;;5073813;28;20447;-68
2023/02/04 08:21:44;;;;;;;69.17;7.73;;;;;;;;;;5074379;28;20444;-69
2023/02/04 08:24:12;;;;;;;69.97;10.23;;;;;;;;;;5074084;28;20493;-67
2023/02/04 08:26:40;;;;;;;68.13;7.47;;;;;;;;;;5074549;28;20520;-69
2023/02/04 08:29:07;;;;;;;73.33;8.77;;;;;;;;;;5073654;28;20538;-68
2023/02/04 08:31:35;;;;;;;65.13;7.90;;;;;;;;;;5074181;28;20451;-68
2023/02/04 08:34:02;;;;;;;65.80;7.13;;;;;;;;;;5074147;28;20586;-68
2023/02/04 08:36:29;;;;;;;72.57;7.33;;;;;;;;;;5074039;28;20454;-69
2023/02/04 08:38:56;;;;;;;63.47;7.53;;;;;;;;;;5073413;28;20447;-68
2023/02/04 08:41:24;;;;;;;67.10;7.43;;;;;;;;;;5074167;28;20454;-69
2023/02/04 08:43:52;;;;;;;65.73;7.03;;;;;;;;;;5073989;28;20470;-69
2023/02/04 08:46:19;;;;;;;70.30;7.40;;;;;;;;;;5074152;28;20538;-69
2023/02/04 08:48:46;;;;;;;70.90;7.87;;;;;;;;;;5073132;28;20956;-69
2023/02/04 08:51:14;;;;;;;67.07;8.20;;;;;;;;;;5074006;28;20440;-69
2023/02/04 08:53:41;;;;;;;77.40;7.60;;;;;;;;;;5073547;28;20582;-68
2023/02/04 08:56:09;;;;;;;62.77;6.50;;;;;;;;;;5073910;28;20447;-69
2023/02/04 08:58:36;;;;;;;66.97;9.17;;;;;;;;;;5072896;28;20481;-68
2023/02/04 09:01:06;;;;;;;66.33;7.20;;;;;;;;;;5073415;28;20447;-68
2023/02/04 09:03:33;;;;;;;69.93;7.90;;;;;;;;;;5073239;28;20460;-68
2023/02/04 09:06:00;;;;;;;66.57;7.97;;;;;;;;;;5072926;28;20931;-69
2023/02/04 09:08:27;;;;;;;69.50;7.27;;;;;;;;;;5073554;28;20451;-68
2023/02/04 09:10:54;;;;;;;66.47;6.73;;;;;;;;;;5073423;28;20443;-69
2023/02/04 09:13:21;;;;;;;67.40;7.83;;;;;;;;;;5073547;28;20498;-68
2023/02/04 09:15:48;;;;;;;64.80;6.53;;;;;;;;;;5073323;28;20942;-70
2023/02/04 09:18:18;;;;;;;71.30;7.87;;;;;;;;;;5073492;28;20471;-68
2023/02/04 09:20:46;;;;;;;68.70;6.53;;;;;;;;;;5073262;28;20463;-69
2023/02/04 09:23:13;;;;;;;67.37;6.90;;;;;;;;;;5072988;28;20952;-70
2023/02/04 09:25:41;;;;;;;65.57;6.57;;;;;;;;;;5073286;28;20450;-69
2023/02/04 09:28:10;;;;;;;65.73;6.50;;;;;;;;;;5072955;28;20948;-69
2023/02/04 09:30:37;;;;;;;66.80;5.97;;;;;;;;;;5072736;28;20451;-70
2023/02/04 09:33:04;;;;;;;65.00;6.57;;;;;;;;;;5072881;28;21006;-68
2023/02/04 09:35:33;;;;;;;67.17;6.77;;;;;;;;;;5073059;28;20447;-69
2023/02/04 09:38:00;;;;;;;66.27;6.40;;;;;;;;;;5072898;28;20447;-65
2023/02/04 09:40:29;;;;;;;66.77;6.73;;;;;;;;;;5072668;28;20510;-67
2023/02/04 09:42:56;;;;;;;69.70;6.73;;;;;;;;;;5072823;28;20451;-68
2023/02/04 09:45:25;;;;;;;71.50;6.97;;;;;;;;;;5072847;28;20454;-69
2023/02/04 09:47:53;;;;;;;65.10;5.67;;;;;;;;;;5073017;28;20458;-68
2023/02/04 09:50:23;;;;;;;67.20;6.07;;;;;;;;;;5072415;28;20985;-67
2023/02/04 09:52:52;;;;;;;64.83;5.73;;;;;;;;;;5072713;28;20491;-67
2023/02/04 09:55:20;;;;;;;65.97;6.03;;;;;;;;;;5072988;28;20827;-70
2023/02/04 09:57:48;;;;;;;67.80;4.70;;;;;;;;;;5072356;28;20936;-70
2023/02/04 10:00:16;;;;;;;64.27;6.00;;;;;;;;;;5072283;28;20443;-67
2023/02/04 10:02:43;;;;;;;64.63;4.90;;;;;;;;;;5072258;28;20964;-67
2023/02/04 10:05:14;;;;;;;65.97;4.63;;;;;;;;;;5072414;28;20846;-67
2023/02/04 10:07:41;;;;;;;65.93;6.00;;;;;;;;;;5072198;28;20447;-68
2023/02/04 10:10:14;;;;;;;66.30;6.10;;;;;;;;;;5071819;28;20830;-68
2023/02/04 10:12:41;;;;;;;68.77;5.00;;;;;;;;;;5072123;28;20999;-67
2023/02/04 10:15:09;;;;;;;67.57;4.60;;;;;;;;;;5072273;28;20468;-68
2023/02/04 10:17:37;;;;;;;65.67;5.00;;;;;;;;;;5072016;28;20451;-68
2023/02/04 10:20:04;;;;;;;65.67;5.63;;;;;;;;;;5071782;28;20447;-67
2023/02/04 10:22:31;;;;;;;64.47;4.80;;;;;;;;;;5071921;28;20443;-69
2023/02/04 10:24:58;;;;;;;67.67;5.87;;;;;;;;;;5071938;28;20477;-69
2023/02/04 10:27:26;;;;;;;64.63;5.77;;;;;;;;;;5072137;28;20439;-67
2023/02/04 10:29:57;;;;;;;68.23;5.50;;;;;;;;;;5071729;28;20827;-67
2023/02/04 10:32:27;;;;;;;65.40;5.37;;;;;;;;;;5071851;28;20970;-69
2023/02/04 10:34:58;;;;;;;71.20;5.40;;;;;;;;;;5071881;28;20524;-67
2023/02/04 10:37:25;;;;;;;69.27;6.10;;;;;;;;;;5071721;28;20500;-66
2023/02/04 10:39:52;;;;;;;66.10;5.00;;;;;;;;;;5071462;28;20938;-67
2023/02/04 10:42:24;;;;;;;70.57;6.67;;;;;;;;;;5071955;28;20458;-66
2023/02/04 10:44:52;;;;;;;65.20;5.00;;;;;;;;;;5071704;28;20467;-67
2023/02/04 10:47:20;;;;;;;69.33;6.63;;;;;;;;;;5071803;28;20455;-69
2023/02/04 10:49:58;;;;;;;64.07;5.20;;;;;;;;;;5071294;28;20793;-69
2023/02/04 10:52:33;;;;;;;68.47;5.17;;;;;;;;;;5071680;28;20455;-69
2023/02/04 10:55:01;;;;;;;66.97;6.20;;;;;;;;;;5072091;28;20471;-68
2023/02/04 10:57:29;;;;;;;63.77;5.27;;;;;;;;;;5071816;28;20447;-68
2023/02/04 10:59:59;;;;;;;62.20;4.40;;;;;;;;;;5071301;28;20451;-68
2023/02/04 11:02:35;;;;;;;66.00;5.03;;;;;;;;;;5071526;28;20762;-69
2023/02/04 11:05:02;;;;;;;68.70;5.30;;;;;;;;;;5071692;28;20467;-69
2023/02/04 11:07:30;;;;;;;71.13;5.83;;;;;;;;;;5071688;28;20448;-69
2023/02/04 11:09:57;;;;;;;65.63;4.87;;;;;;;;;;5071259;28;20447;-69
2023/02/04 11:12:25;;;;;;;68.20;5.30;;;;;;;;;;5071496;28;20443;-69
2023/02/04 11:14:55;;;;;;;65.83;5.47;;;;;;;;;;5071539;28;20997;-69
2023/02/04 11:17:30;;;;;;;70.50;5.70;;;;;;;;;;5071378;28;20982;-68
2023/02/04 11:19:58;;;;;;;66.27;4.77;;;;;;;;;;5071276;28;20504;-69
2023/02/04 11:22:36;;;;;;;66.23;5.73;;;;;;;;;;5071366;28;20455;-69
2023/02/04 11:25:03;;;;;;;66.57;4.70;;;;;;;;;;5071146;28;20481;-69
2023/02/04 11:27:38;;;;;;;64.90;5.27;;;;;;;;;;5072268;28;20450;-69
2023/02/04 11:30:06;;;;;;;71.20;5.37;;;;;;;;;;5075441;28;20458;-68
2023/02/04 11:32:36;;;;;;;67.10;5.63;;;;;;;;;;5075171;28;20451;-68
2023/02/04 11:35:08;;;;;;;62.00;5.07;;;;;;;;;;5075216;28;20503;-69
2023/02/04 11:37:36;;;;;;;73.10;6.63;;;;;;;;;;5070948;28;20916;-69
2023/02/04 11:40:17;;;;;;;70.50;5.90;;;;;;;;;;5074255;28;20205;-68
2023/02/04 11:42:44;;;;;;;67.70;5.37;;;;;;;;;;5074483;28;20447;-69
2023/02/04 11:45:14;;;;;;;68.40;5.10;;;;;;;;;;5074574;28;20842;-68
2023/02/04 11:47:43;;;;;;;65.03;4.97;;;;;;;;;;5074889;28;20831;-68
2023/02/04 11:50:15;;;;;;;69.90;6.20;;;;;;;;;;5073934;28;20447;-69
2023/02/04 11:52:42;;;;;;;69.00;5.77;;;;;;;;;;5074849;28;20451;-69
2023/02/04 11:55:10;;;;;;;73.20;5.63;;;;;;;;;;5074798;28;20478;-69
2023/02/04 11:57:41;;;;;;;63.10;4.47;;;;;;;;;;5074801;28;20447;-68
2023/02/04 12:00:14;;;;;;;66.87;4.37;;;;;;;;;;5074541;28;20462;-68
2023/02/04 12:02:44;;;;;;;62.83;4.27;;;;;;;;;;5074628;28;20875;-68
2023/02/04 12:05:12;;;;;;;71.43;5.90;;;;;;;;;;5074807;28;20463;-68
2023/02/04 12:07:40;;;;;;;64.40;4.23;;;;;;;;;;5074715;28;20455;-68
2023/02/04 12:10:14;;;;;;;66.07;4.97;;;;;;;;;;5074623;28;20443;-69
2023/02/04 12:12:43;;;;;;;71.10;4.67;;;;;;;;;;5074678;28;20443;-69
2023/02/04 12:15:14;;;;;;;67.37;5.23;;;;;;;;;;5074394;28;20473;-68
2023/02/04 12:17:46;;;;;;;70.40;4.73;;;;;;;;;;5074661;28;20447;-69
2023/02/04 12:20:13;;;;;;;66.93;5.30;;;;;;;;;;5074223;28;20457;-69
2023/02/04 12:22:40;;;;;;;65.53;5.27;;;;;;;;;;5074498;28;20812;-68
2023/02/04 12:25:08;;;;;;;67.53;4.83;;;;;;;;;;5074232;28;20504;-69
2023/02/04 12:27:35;;;;;;;64.97;5.00;;;;;;;;;;5074273;28;20534;-68
2023/02/04 12:30:02;;;;;;;71.20;6.43;;;;;;;;;;5074164;28;20458;-68
2023/02/04 12:32:29;;;;;;;63.37;4.87;;;;;;;;;;5074374;28;20447;-68
2023/02/04 12:34:58;;;;;;;69.73;4.80;;;;;;;;;;5074090;28;20863;-68
2023/02/04 12:37:25;;;;;;;69.30;5.13;;;;;;;;;;5074281;28;20443;-69
2023/02/04 12:39:52;;;;;;;63.73;4.90;;;;;;;;;;5072451;28;20507;-69
2023/02/04 12:42:19;;;;;;;75.50;5.87;;;;;;;;;;5074182;28;20447;-68
2023/02/04 12:44:46;;;;;;;69.07;5.70;;;;;;;;;;5074062;28;20835;-69
2023/02/04 12:47:13;;;;;;;67.70;5.53;;;;;;;;;;5074058;28;20443;-68
2023/02/04 12:49:40;;;;;;;72.53;5.70;;;;;;;;;;5073666;28;20478;-69
2023/02/04 12:52:09;;;;;;;68.03;5.60;;;;;;;;;;5073854;28;20479;-68
2023/02/04 12:54:36;;;;;;;69.47;6.60;;;;;;;;;;5073674;28;20494;-69
2023/02/04 12:57:03;;;;;;;64.20;4.33;;;;;;;;;;5073626;28;20829;-68
2023/02/04 12:59:30;;;;;;;65.50;4.87;;;;;;;;;;5073586;28;20834;-69
2023/02/04 13:01:57;;;;;;;61.57;5.13;;;;;;;;;;5073737;28;20451;-68
2023/02/04 13:04:25;;;;;;;76.90;10.03;;;;;;;;;;5073576;28;20468;-67
2023/02/04 13:06:52;;;;;;;84.27;8.93;;;;;;;;;;5073419;28;20454;-67
2023/02/04 13:09:20;;;;;;;69.00;5.37;;;;;;;;;;5072985;28;20954;-67
2023/02/04 13:11:47;;;;;;;72.20;6.47;;;;;;;;;;5073398;28;20539;-67
2023/02/04 13:14:14;;;;;;;64.63;4.93;;;;;;;;;;5072910;28;20860;-67
2023/02/04 13:16:41;;;;;;;71.73;4.80;;;;;;;;;;5073378;28;20447;-67
2023/02/04 13:19:09;;;;;;;61.37;4.70;;;;;;;;;;5073151;28;20521;-66
2023/02/04 13:21:36;;;;;;;69.50;5.50;;;;;;;;;;5073620;28;20847;-66
2023/02/04 13:24:03;;;;;;;65.37;5.07;;;;;;;;;;5073285;28;20475;-66
2023/02/04 13:26:31;;;;;;;62.87;4.90;;;;;;;;;;5073360;28;20451;-67
2023/02/04 13:28:58;;;;;;;68.80;5.60;;;;;;;;;;5072412;28;20936;-66
2023/02/04 13:31:25;;;;;;;66.83;6.10;;;;;;;;;;5073077;28;20458;-67
2023/02/04 13:33:52;;;;;;;74.93;5.17;;;;;;;;;;5072903;28;20955;-70
2023/02/04 13:36:19;;;;;;;65.80;4.60;;;;;;;;;;5072863;28;20454;-70
2023/02/04 13:38:47;;;;;;;66.50;5.07;;;;;;;;;;5072461;28;20447;-71
2023/02/04 13:41:14;;;;;;;63.23;5.10;;;;;;;;;;5073109;28;20831;-71
2023/02/04 13:43:42;;;;;;;64.17;5.10;;;;;;;;;;5072837;28;20474;-69
2023/02/04 13:46:09;;;;;;;64.07;4.27;;;;;;;;;;5072754;28;20534;-67
2023/02/04 13:48:36;;;;;;;75.23;6.20;;;;;;;;;;5072311;28;20447;-68
2023/02/04 13:51:05;;;;;;;63.00;5.53;;;;;;;;;;5072046;28;20940;-69
2023/02/04 13:53:32;;;;;;;63.80;4.53;;;;;;;;;;5072603;28;20532;-68
2023/02/04 13:56:00;;;;;;;69.30;5.70;;;;;;;;;;5072720;28;20451;-69
2023/02/04 13:58:27;;;;;;;63.90;5.10;;;;;;;;;;5072379;28;20459;-68
2023/02/04 14:00:56;;;;;;;68.27;5.20;;;;;;;;;;5072253;28;20458;-69
2023/02/04 14:03:24;;;;;;;64.00;5.17;;;;;;;;;;5072183;28;20475;-68
2023/02/04 14:05:51;;;;;;;65.20;4.70;;;;;;;;;;5072229;28;20447;-69
2023/02/04 14:08:18;;;;;;;63.53;5.10;;;;;;;;;;5072508;28;20454;-69
2023/02/04 14:10:45;;;;;;;60.53;4.40;;;;;;;;;;5072069;28;20451;-69
2023/02/04 14:13:13;;;;;;;64.60;4.77;;;;;;;;;;5072261;28;20471;-69
2023/02/04 14:15:40;;;;;;;61.60;4.27;;;;;;;;;;5072315;28;20483;-69
2023/02/04 14:18:09;;;;;;;62.60;4.40;;;;;;;;;;5071969;28;20443;-68
2023/02/04 14:20:36;;;;;;;62.63;4.43;;;;;;;;;;5071947;28;20444;-69
2023/02/04 14:23:03;;;;;;;62.63;4.20;;;;;;;;;;5072251;28;20616;-69
2023/02/04 14:25:30;;;;;;;62.97;5.03;;;;;;;;;;5071970;28;21038;-70
2023/02/04 14:27:58;;;;;;;63.07;4.70;;;;;;;;;;5071991;28;20445;-69
2023/02/04 14:30:27;;;;;;;66.27;4.97;;;;;;;;;;5071625;28;20487;-69
2023/02/04 14:32:54;;;;;;;66.33;4.53;;;;;;;;;;5072003;28;20452;-68
2023/02/04 14:35:22;;;;;;;62.57;4.50;;;;;;;;;;5072141;28;20484;-69